Time;durP1;ratioP1;P1;durP2;ratioP2;P2;SDS_P1;SDS_P2;PMS_P1;PMS_P2;Temp;Humidity;BMP_temperature;BMP_pressure;BME280_temperature;BME280_humidity;BME280_pressure;Samples;Min_cycle;Max_cycle;Signal;HPM_P1;HPM_P2
2023/07/27 00:02:58;;;;;;;2.78;2.47;;;;;;;;;;5010961;23;20080;-75
2023/07/27 00:05:25;;;;;;;3.58;2.90;;;;;;;;;;4994670;28;20060;-75
2023/07/27 00:07:51;;;;;;;3.30;2.65;;;;;;;;;;5011892;28;20022;-75
2023/07/27 00:10:16;;;;;;;3.20;2.90;;;;;;;;;;4996803;28;20114;-75
2023/07/27 00:12:41;;;;;;;4.20;2.45;;;;;;;;;;4997406;28;20116;-75
2023/07/27 00:15:07;;;;;;;2.55;2.35;;;;;;;;;;4996602;28;20177;-75
2023/07/27 00:17:32;;;;;;;3.45;2.85;;;;;;;;;;4996920;28;20030;-75
2023/07/27 00:19:58;;;;;;;2.53;2.33;;;;;;;;;;4997138;28;20535;-75
2023/07/27 00:22:23;;;;;;;3.33;2.70;;;;;;;;;;5011693;28;20027;-75
2023/07/27 00:24:48;;;;;;;3.53;2.72;;;;;;;;;;4995673;28;20477;-75
2023/07/27 00:27:14;;;;;;;3.88;2.78;;;;;;;;;;5012355;28;20462;-75
2023/07/27 00:29:39;;;;;;;2.90;2.55;;;;;;;;;;4996375;28;20477;-75
2023/07/27 00:32:05;;;;;;;3.75;2.10;;;;;;;;;;4996196;28;20101;-75
2023/07/27 00:34:30;;;;;;;4.63;2.47;;;;;;;;;;4996050;28;20382;-75
2023/07/27 00:36:55;;;;;;;4.65;2.42;;;;;;;;;;4996272;28;20085;-75
2023/07/27 00:39:21;;;;;;;2.90;2.30;;;;;;;;;;4996646;28;20549;-76
2023/07/27 00:41:46;;;;;;;3.92;1.92;;;;;;;;;;4996110;28;20030;-75
2023/07/27 00:44:12;;;;;;;1.65;1.55;;;;;;;;;;4978428;28;20034;-76
2023/07/27 00:46:38;;;;;;;2.35;1.75;;;;;;;;;;4994214;28;20092;-75
2023/07/27 00:49:05;;;;;;;2.38;1.60;;;;;;;;;;4963080;28;20026;-74
2023/07/27 00:51:34;;;;;;;1.63;1.42;;;;;;;;;;4979472;28;20077;-74
2023/07/27 00:54:00;;;;;;;1.70;1.60;;;;;;;;;;4996592;28;20052;-74
2023/07/27 00:56:25;;;;;;;1.77;1.67;;;;;;;;;;4978930;28;20077;-75
2023/07/27 00:58:51;;;;;;;2.10;1.90;;;;;;;;;;4996288;28;20469;-74
2023/07/27 01:01:16;;;;;;;2.33;2.15;;;;;;;;;;4996408;28;20046;-75
2023/07/27 01:03:42;;;;;;;3.63;2.60;;;;;;;;;;4995961;28;20041;-73
2023/07/27 01:06:07;;;;;;;2.65;2.40;;;;;;;;;;5010876;28;20042;-74
2023/07/27 01:08:32;;;;;;;3.80;2.70;;;;;;;;;;4995308;28;20034;-73
2023/07/27 01:11:24;;;;;;;3.90;2.67;;;;;;;;;;4994889;28;20018;-73
2023/07/27 01:14:02;;;;;;;2.92;2.72;;;;;;;;;;4980642;28;20477;-73
2023/07/27 01:16:32;;;;;;;2.35;2.15;;;;;;;;;;4995886;28;20031;-73
2023/07/27 01:19:04;;;;;;;2.00;1.90;;;;;;;;;;4996339;28;20366;-73
2023/07/27 01:21:34;;;;;;;2.28;2.17;;;;;;;;;;4994678;28;20466;-74
2023/07/27 01:24:31;;;;;;;1.83;1.73;;;;;;;;;;4978345;28;20034;-74
2023/07/27 01:27:26;;;;;;;2.05;1.95;;;;;;;;;;4995812;28;20470;-74
2023/07/27 01:30:10;;;;;;;1.92;1.83;;;;;;;;;;4986988;28;20030;-75
2023/07/27 01:32:37;;;;;;;2.05;1.95;;;;;;;;;;5011070;28;20034;-75
2023/07/27 01:35:03;;;;;;;1.85;1.75;;;;;;;;;;4995060;28;20038;-75
2023/07/27 01:37:29;;;;;;;1.55;1.45;;;;;;;;;;4995464;28;20034;-75
2023/07/27 01:39:56;;;;;;;2.00;1.90;;;;;;;;;;4978338;28;20030;-74
2023/07/27 01:42:22;;;;;;;1.98;1.88;;;;;;;;;;4978171;28;20022;-74
2023/07/27 01:44:48;;;;;;;2.08;1.88;;;;;;;;;;4994631;28;20055;-73
2023/07/27 01:47:14;;;;;;;1.88;1.77;;;;;;;;;;4978619;28;20030;-73
2023/07/27 01:49:41;;;;;;;2.05;1.85;;;;;;;;;;4978190;28;20077;-74
2023/07/27 01:52:07;;;;;;;1.92;1.83;;;;;;;;;;4978193;28;20030;-76
2023/07/27 01:54:34;;;;;;;2.28;2.08;;;;;;;;;;4977592;28;20056;-72
2023/07/27 01:57:01;;;;;;;1.95;1.77;;;;;;;;;;4995325;28;20041;-74
2023/07/27 01:59:27;;;;;;;2.03;1.90;;;;;;;;;;4961570;28;20132;-74
2023/07/27 02:01:53;;;;;;;4.60;1.95;;;;;;;;;;5001308;23;20453;-73
2023/07/27 02:04:19;;;;;;;2.25;2.10;;;;;;;;;;4995684;28;20046;-73
2023/07/27 02:06:45;;;;;;;6.15;1.95;;;;;;;;;;5013391;28;20476;-66
2023/07/27 02:09:20;;;;;;;2.28;2.13;;;;;;;;;;5014499;28;20085;-73
2023/07/27 02:11:46;;;;;;;2.10;1.90;;;;;;;;;;4997344;28;20588;-73
2023/07/27 02:14:17;;;;;;;2.42;2.08;;;;;;;;;;4996292;28;20393;-74
2023/07/27 02:16:49;;;;;;;2.63;2.15;;;;;;;;;;5014523;28;20052;-73
2023/07/27 02:19:16;;;;;;;2.05;1.85;;;;;;;;;;4996691;28;20531;-73
2023/07/27 02:21:42;;;;;;;3.38;2.13;;;;;;;;;;4997037;28;20022;-73
2023/07/27 02:24:07;;;;;;;2.55;2.10;;;;;;;;;;4996579;28;20041;-72
2023/07/27 02:26:33;;;;;;;3.80;2.22;;;;;;;;;;5014594;28;20384;-73
2023/07/27 02:28:59;;;;;;;3.35;2.40;;;;;;;;;;4996741;28;20040;-73
2023/07/27 02:31:25;;;;;;;2.15;2.05;;;;;;;;;;5030007;28;20025;-73
2023/07/27 02:33:51;;;;;;;3.72;2.40;;;;;;;;;;4996608;28;20119;-73
2023/07/27 02:36:16;;;;;;;2.22;2.13;;;;;;;;;;4996429;28;20496;-73
2023/07/27 02:38:43;;;;;;;2.50;2.30;;;;;;;;;;5012880;28;20025;-74
2023/07/27 02:41:09;;;;;;;2.67;2.25;;;;;;;;;;4996530;28;20468;-73
2023/07/27 02:43:35;;;;;;;2.25;2.15;;;;;;;;;;5013042;28;20025;-73
2023/07/27 02:46:00;;;;;;;2.95;2.28;;;;;;;;;;5013686;28;20084;-73
2023/07/27 02:48:27;;;;;;;2.20;2.00;;;;;;;;;;5013075;28;20126;-72
2023/07/27 02:50:52;;;;;;;2.25;2.13;;;;;;;;;;5014391;28;20037;-72
2023/07/27 02:53:19;;;;;;;2.42;1.92;;;;;;;;;;5012954;28;20032;-72
2023/07/27 02:55:57;;;;;;;2.13;2.03;;;;;;;;;;4996334;28;20030;-73
2023/07/27 02:58:23;;;;;;;3.42;1.98;;;;;;;;;;4996770;28;20029;-73
2023/07/27 03:00:59;;;;;;;2.30;2.10;;;;;;;;;;5012481;28;20117;-73
2023/07/27 03:03:24;;;;;;;2.38;2.28;;;;;;;;;;4996116;28;20044;-73
2023/07/27 03:05:58;;;;;;;2.42;2.15;;;;;;;;;;5012859;28;20489;-73
2023/07/27 03:08:24;;;;;;;1.98;1.88;;;;;;;;;;4997080;28;20033;-73
2023/07/27 03:10:49;;;;;;;2.83;1.90;;;;;;;;;;5014265;28;20022;-71
2023/07/27 03:13:14;;;;;;;1.90;1.80;;;;;;;;;;5013377;28;20477;-71
2023/07/27 03:15:40;;;;;;;1.58;1.48;;;;;;;;;;5013719;28;20049;-71
2023/07/27 03:18:07;;;;;;;1.52;1.33;;;;;;;;;;5013496;28;20028;-71
2023/07/27 03:20:39;;;;;;;1.25;1.17;;;;;;;;;;4996386;28;20034;-71
2023/07/27 03:23:05;;;;;;;1.80;1.27;;;;;;;;;;5014367;28;20041;-74
2023/07/27 03:25:34;;;;;;;1.40;1.40;;;;;;;;;;5012806;28;20036;-73
2023/07/27 03:28:00;;;;;;;3.42;1.55;;;;;;;;;;4996193;28;20060;-71
2023/07/27 03:30:25;;;;;;;1.60;1.50;;;;;;;;;;4996032;28;20061;-75
2023/07/27 03:32:51;;;;;;;2.22;1.42;;;;;;;;;;5012435;28;20026;-73
2023/07/27 03:35:16;;;;;;;1.38;1.20;;;;;;;;;;5013291;28;20385;-73
2023/07/27 03:37:42;;;;;;;1.98;1.27;;;;;;;;;;4978932;28;20030;-73
2023/07/27 03:40:07;;;;;;;1.70;1.60;;;;;;;;;;5012959;28;20018;-73
2023/07/27 03:42:32;;;;;;;1.45;1.35;;;;;;;;;;4995797;28;20085;-73
2023/07/27 03:44:58;;;;;;;2.85;1.63;;;;;;;;;;5012151;28;20053;-73
2023/07/27 03:47:23;;;;;;;2.22;1.70;;;;;;;;;;5013559;28;20030;-72
2023/07/27 03:49:48;;;;;;;1.70;1.60;;;;;;;;;;4995816;28;20169;-75
2023/07/27 03:52:14;;;;;;;2.03;1.58;;;;;;;;;;4995456;28;20034;-74
2023/07/27 03:54:39;;;;;;;1.60;1.45;;;;;;;;;;5013331;28;20033;-73
2023/07/27 03:57:04;;;;;;;3.42;1.58;;;;;;;;;;5012773;28;20495;-75
2023/07/27 03:59:30;;;;;;;3.38;1.40;;;;;;;;;;4999587;28;20010;-74
2023/07/27 04:01:56;;;;;;;1.75;1.65;;;;;;;;;;5015871;28;20165;-73
2023/07/27 04:04:21;;;;;;;1.67;1.58;;;;;;;;;;5015551;28;20032;-73
2023/07/27 04:06:46;;;;;;;1.58;1.48;;;;;;;;;;5015283;28;20065;-73
2023/07/27 04:09:12;;;;;;;2.10;1.85;;;;;;;;;;5031992;28;20113;-72
2023/07/27 04:11:37;;;;;;;2.78;1.83;;;;;;;;;;5015526;28;20018;-73
2023/07/27 04:14:03;;;;;;;2.25;2.15;;;;;;;;;;5016636;28;20084;-75
2023/07/27 04:16:29;;;;;;;2.38;2.17;;;;;;;;;;4998705;28;20049;-75
2023/07/27 04:18:54;;;;;;;2.35;2.20;;;;;;;;;;5015711;28;20096;-76
2023/07/27 04:21:20;;;;;;;2.47;2.28;;;;;;;;;;5016982;28;20457;-76
2023/07/27 04:23:45;;;;;;;2.72;2.30;;;;;;;;;;5016242;28;20428;-74
2023/07/27 04:26:11;;;;;;;2.15;2.05;;;;;;;;;;5017223;28;20072;-72
2023/07/27 04:28:36;;;;;;;2.20;2.00;;;;;;;;;;5015903;28;20434;-72
2023/07/27 04:31:01;;;;;;;2.30;2.10;;;;;;;;;;5014460;28;20026;-72
2023/07/27 04:33:27;;;;;;;3.63;2.40;;;;;;;;;;5016314;28;20491;-73
2023/07/27 04:35:52;;;;;;;2.15;2.05;;;;;;;;;;5016577;28;20022;-73
2023/07/27 04:38:17;;;;;;;2.60;2.40;;;;;;;;;;5016518;28;20026;-73
2023/07/27 04:40:43;;;;;;;2.53;2.33;;;;;;;;;;5015014;28;20405;-73
2023/07/27 04:43:08;;;;;;;2.75;2.33;;;;;;;;;;5003820;28;20025;-73
2023/07/27 04:45:33;;;;;;;2.10;2.00;;;;;;;;;;5007503;28;20519;-73
2023/07/27 04:47:59;;;;;;;4.55;1.88;;;;;;;;;;4998579;28;20030;-72
2023/07/27 04:50:24;;;;;;;2.75;2.17;;;;;;;;;;4998018;28;20441;-72
2023/07/27 04:52:49;;;;;;;3.22;2.13;;;;;;;;;;5031679;28;20018;-73
2023/07/27 04:55:15;;;;;;;3.03;2.00;;;;;;;;;;4982178;28;20032;-73
2023/07/27 04:57:40;;;;;;;6.05;3.05;;;;;;;;;;5014831;28;20034;-73
2023/07/27 05:00:06;;;;;;;2.20;2.10;;;;;;;;;;5015730;28;20017;-73
2023/07/27 05:02:31;;;;;;;1.80;1.70;;;;;;;;;;5015874;28;20046;-72
2023/07/27 05:04:57;;;;;;;2.17;1.98;;;;;;;;;;5014461;28;20034;-72
2023/07/27 05:07:22;;;;;;;2.38;2.17;;;;;;;;;;5015638;28;20026;-73
2023/07/27 05:09:48;;;;;;;2.83;2.15;;;;;;;;;;4997721;28;20030;-73
2023/07/27 05:12:13;;;;;;;2.97;2.03;;;;;;;;;;5015811;28;20036;-73
2023/07/27 05:14:39;;;;;;;3.20;2.20;;;;;;;;;;4998018;28;20030;-73
2023/07/27 05:17:04;;;;;;;2.67;2.22;;;;;;;;;;5015567;28;20041;-73
2023/07/27 05:19:29;;;;;;;4.40;2.58;;;;;;;;;;4998325;28;20532;-73
2023/07/27 05:21:55;;;;;;;2.60;2.15;;;;;;;;;;5015319;28;20054;-75
2023/07/27 05:24:20;;;;;;;2.65;2.00;;;;;;;;;;5015253;28;20029;-73
2023/07/27 05:26:45;;;;;;;2.17;1.90;;;;;;;;;;5015745;28;20040;-74
2023/07/27 05:29:11;;;;;;;2.63;2.40;;;;;;;;;;5015454;28;20069;-73
2023/07/27 05:31:36;;;;;;;3.97;2.42;;;;;;;;;;5014229;28;20109;-73
2023/07/27 05:34:01;;;;;;;2.58;2.33;;;;;;;;;;5014676;28;20106;-73
2023/07/27 05:36:27;;;;;;;2.20;2.10;;;;;;;;;;5015562;28;20036;-73
2023/07/27 05:38:54;;;;;;;2.67;2.17;;;;;;;;;;5014300;28;20026;-73
2023/07/27 05:41:19;;;;;;;2.55;2.35;;;;;;;;;;5013285;28;20104;-73
2023/07/27 05:43:44;;;;;;;2.25;2.10;;;;;;;;;;5012866;28;20489;-73
2023/07/27 05:46:10;;;;;;;3.50;2.33;;;;;;;;;;5013251;28;20026;-73
2023/07/27 05:48:35;;;;;;;2.30;2.10;;;;;;;;;;4995284;28;20038;-73
2023/07/27 05:51:00;;;;;;;3.13;2.15;;;;;;;;;;5012893;28;20121;-73
2023/07/27 05:53:26;;;;;;;3.22;1.90;;;;;;;;;;5012875;28;20100;-73
2023/07/27 05:55:51;;;;;;;1.80;1.60;;;;;;;;;;5013867;28;20370;-73
2023/07/27 05:58:17;;;;;;;2.78;1.42;;;;;;;;;;5014797;28;20022;-73
2023/07/27 06:00:42;;;;;;;1.58;1.40;;;;;;;;;;5014770;28;20037;-73
2023/07/27 06:03:07;;;;;;;1.42;1.33;;;;;;;;;;5014727;28;20053;-73
2023/07/27 06:05:32;;;;;;;1.52;1.42;;;;;;;;;;5014869;28;20038;-73
2023/07/27 06:07:58;;;;;;;1.98;1.88;;;;;;;;;;5014631;28;20080;-73
2023/07/27 06:10:23;;;;;;;2.90;1.67;;;;;;;;;;5014579;28;20466;-73
2023/07/27 06:12:48;;;;;;;2.30;1.90;;;;;;;;;;5014865;28;20132;-73
2023/07/27 06:15:14;;;;;;;1.70;1.60;;;;;;;;;;5014476;28;20436;-73
2023/07/27 06:17:39;;;;;;;3.08;1.85;;;;;;;;;;5014744;28;20033;-73
2023/07/27 06:20:05;;;;;;;3.28;1.58;;;;;;;;;;5014456;28;20041;-72
2023/07/27 06:22:31;;;;;;;1.60;1.50;;;;;;;;;;5037651;23;20041;-73
2023/07/27 06:24:56;;;;;;;1.33;1.23;;;;;;;;;;5033969;28;20065;-73
2023/07/27 06:27:21;;;;;;;1.88;1.55;;;;;;;;;;5034087;28;20022;-73
2023/07/27 06:29:47;;;;;;;1.63;1.50;;;;;;;;;;5000513;28;20376;-73
2023/07/27 06:32:12;;;;;;;1.85;1.38;;;;;;;;;;5034223;28;20029;-73
2023/07/27 06:34:37;;;;;;;1.27;1.20;;;;;;;;;;5034510;28;20025;-73
2023/07/27 06:37:03;;;;;;;1.80;1.70;;;;;;;;;;5033879;28;20500;-73
2023/07/27 06:39:28;;;;;;;2.08;1.88;;;;;;;;;;4999822;28;20025;-73
2023/07/27 06:41:53;;;;;;;2.92;1.75;;;;;;;;;;5033658;28;20044;-73
2023/07/27 06:44:29;;;;;;;1.50;1.40;;;;;;;;;;5015434;28;20037;-73
2023/07/27 06:46:54;;;;;;;2.13;1.45;;;;;;;;;;5014595;28;20488;-73
2023/07/27 06:49:20;;;;;;;1.60;1.50;;;;;;;;;;5032589;28;20036;-73
2023/07/27 06:51:46;;;;;;;1.20;1.10;;;;;;;;;;5032501;28;20037;-73
2023/07/27 06:54:11;;;;;;;1.30;1.23;;;;;;;;;;5033093;28;20495;-73
2023/07/27 06:56:36;;;;;;;2.40;1.40;;;;;;;;;;5033342;28;20033;-73
2023/07/27 06:59:02;;;;;;;1.38;1.27;;;;;;;;;;5015779;28;20037;-73
2023/07/27 07:01:27;;;;;;;1.45;1.35;;;;;;;;;;5033181;28;20033;-73
2023/07/27 07:03:53;;;;;;;2.88;1.25;;;;;;;;;;5033075;28;20014;-73
2023/07/27 07:06:19;;;;;;;2.70;1.38;;;;;;;;;;4999139;28;20468;-73
2023/07/27 07:08:44;;;;;;;2.30;1.50;;;;;;;;;;5015576;28;20026;-73
2023/07/27 07:11:09;;;;;;;1.95;1.45;;;;;;;;;;5015156;28;20036;-73
2023/07/27 07:13:36;;;;;;;2.10;1.40;;;;;;;;;;5032555;28;20111;-73
2023/07/27 07:16:01;;;;;;;3.20;1.50;;;;;;;;;;5032384;28;20492;-73
2023/07/27 07:18:26;;;;;;;1.50;1.40;;;;;;;;;;5032453;28;20105;-73
2023/07/27 07:20:52;;;;;;;1.80;1.25;;;;;;;;;;5014572;28;20369;-73
2023/07/27 07:23:17;;;;;;;2.30;1.52;;;;;;;;;;5014272;28;20046;-73
2023/07/27 07:25:43;;;;;;;1.27;1.17;;;;;;;;;;5032068;28;20067;-73
2023/07/27 07:28:09;;;;;;;2.03;1.50;;;;;;;;;;5032212;28;20033;-73
2023/07/27 07:30:36;;;;;;;1.27;1.13;;;;;;;;;;5032086;28;20080;-73
2023/07/27 07:33:01;;;;;;;2.25;1.35;;;;;;;;;;5034568;28;20076;-73
2023/07/27 07:35:26;;;;;;;3.35;1.45;;;;;;;;;;5037591;28;20061;-73
2023/07/27 07:37:52;;;;;;;1.63;1.52;;;;;;;;;;5020316;28;20061;-73
2023/07/27 07:40:18;;;;;;;2.03;1.77;;;;;;;;;;5037085;28;20034;-71
2023/07/27 07:42:46;;;;;;;1.40;1.13;;;;;;;;;;5037698;28;20048;-71
2023/07/27 07:45:11;;;;;;;1.42;1.30;;;;;;;;;;5037019;28;20044;-71
2023/07/27 07:47:37;;;;;;;1.48;1.38;;;;;;;;;;5002940;28;20025;-71
2023/07/27 07:50:03;;;;;;;1.40;1.20;;;;;;;;;;5037016;28;20037;-71
2023/07/27 07:52:28;;;;;;;1.40;1.30;;;;;;;;;;5036943;28;20018;-71
2023/07/27 07:54:54;;;;;;;1.95;1.30;;;;;;;;;;5019135;28;20102;-71
2023/07/27 07:57:20;;;;;;;1.30;1.15;;;;;;;;;;5019616;28;20030;-71
2023/07/27 07:59:45;;;;;;;1.35;1.20;;;;;;;;;;5052732;28;20037;-71
2023/07/27 08:02:11;;;;;;;1.40;1.30;;;;;;;;;;5037350;28;20025;-71
2023/07/27 08:04:37;;;;;;;1.38;1.25;;;;;;;;;;5036961;28;20041;-71
2023/07/27 08:07:02;;;;;;;2.72;1.05;;;;;;;;;;5037137;28;20029;-71
2023/07/27 08:09:27;;;;;;;1.20;1.10;;;;;;;;;;5037185;28;20057;-71
2023/07/27 08:11:54;;;;;;;1.98;1.23;;;;;;;;;;5036740;28;20492;-71
2023/07/27 08:14:19;;;;;;;1.77;0.82;;;;;;;;;;5036531;28;20112;-71
2023/07/27 08:16:44;;;;;;;1.63;0.95;;;;;;;;;;5036742;28;20113;-71
2023/07/27 08:19:10;;;;;;;2.15;1.00;;;;;;;;;;5018787;28;20534;-71
2023/07/27 08:21:36;;;;;;;1.50;1.13;;;;;;;;;;5036717;28;20041;-71
2023/07/27 08:24:01;;;;;;;1.13;1.10;;;;;;;;;;5036734;28;20038;-71
2023/07/27 08:26:29;;;;;;;1.58;1.48;;;;;;;;;;5030490;23;20112;-70
2023/07/27 08:28:54;;;;;;;1.50;1.20;;;;;;;;;;4992886;23;20469;-70
2023/07/27 08:31:20;;;;;;;1.05;0.93;;;;;;;;;;5013254;28;20113;-70
2023/07/27 08:33:45;;;;;;;1.10;1.10;;;;;;;;;;5014709;28;20032;-70
2023/07/27 08:36:10;;;;;;;1.42;1.33;;;;;;;;;;5016559;28;20117;-70
2023/07/27 08:38:36;;;;;;;1.40;1.30;;;;;;;;;;5016635;28;20080;-70
2023/07/27 08:41:01;;;;;;;1.15;1.13;;;;;;;;;;5016335;28;20105;-71
2023/07/27 08:43:28;;;;;;;2.42;1.48;;;;;;;;;;5016255;28;20453;-71
2023/07/27 08:45:53;;;;;;;1.63;1.52;;;;;;;;;;5015509;28;20029;-71
2023/07/27 08:48:19;;;;;;;3.92;1.85;;;;;;;;;;5016166;28;20041;-71
2023/07/27 08:50:45;;;;;;;1.75;1.40;;;;;;;;;;5016060;28;20018;-71
2023/07/27 08:53:11;;;;;;;1.60;1.45;;;;;;;;;;5016076;28;20034;-71
2023/07/27 08:55:40;;;;;;;2.38;1.30;;;;;;;;;;5016196;28;20096;-70
2023/07/27 08:58:06;;;;;;;3.05;1.38;;;;;;;;;;5016241;28;20026;-70
2023/07/27 09:00:31;;;;;;;2.75;1.33;;;;;;;;;;5015957;28;20440;-70
2023/07/27 09:02:58;;;;;;;0.75;0.75;;;;;;;;;;5015892;28;20029;-70
2023/07/27 09:05:35;;;;;;;1.60;1.50;;;;;;;;;;5015753;28;20026;-70
2023/07/27 09:08:05;;;;;;;2.53;1.30;;;;;;;;;;5016318;28;20049;-70
2023/07/27 09:10:30;;;;;;;1.27;0.90;;;;;;;;;;5016278;28;20038;-70
2023/07/27 09:12:59;;;;;;;1.23;1.13;;;;;;;;;;5031273;28;20030;-70
2023/07/27 09:15:26;;;;;;;1.83;1.40;;;;;;;;;;5014756;28;20470;-70
2023/07/27 09:17:52;;;;;;;1.13;1.05;;;;;;;;;;5015580;28;20075;-70
2023/07/27 09:20:18;;;;;;;1.25;1.15;;;;;;;;;;5015524;28;20034;-70
2023/07/27 09:22:45;;;;;;;1.45;1.30;;;;;;;;;;5015577;28;20038;-70
2023/07/27 09:25:10;;;;;;;1.10;1.10;;;;;;;;;;5030523;28;20421;-70
2023/07/27 09:27:42;;;;;;;1.55;1.17;;;;;;;;;;5015131;28;20036;-70
2023/07/27 09:30:08;;;;;;;1.38;1.27;;;;;;;;;;5015310;28;20470;-70
2023/07/27 09:32:34;;;;;;;1.30;1.10;;;;;;;;;;5013978;28;20026;-70
2023/07/27 09:34:59;;;;;;;1.23;1.15;;;;;;;;;;5015246;28;20034;-70
2023/07/27 09:37:25;;;;;;;2.67;1.02;;;;;;;;;;5014972;28;20101;-70
2023/07/27 09:40:04;;;;;;;1.65;1.40;;;;;;;;;;4997564;28;20425;-70
2023/07/27 09:42:32;;;;;;;1.40;1.30;;;;;;;;;;5015104;28;20044;-70
2023/07/27 09:44:58;;;;;;;1.30;1.20;;;;;;;;;;5014954;28;20030;-70
2023/07/27 09:47:29;;;;;;;1.50;1.40;;;;;;;;;;5015029;28;20049;-70
2023/07/27 09:49:57;;;;;;;2.72;1.17;;;;;;;;;;5014874;28;20030;-70
2023/07/27 09:52:23;;;;;;;2.65;1.52;;;;;;;;;;5014960;28;20025;-70
2023/07/27 09:54:50;;;;;;;1.20;1.10;;;;;;;;;;5014959;28;20026;-70
2023/07/27 09:57:15;;;;;;;2.88;1.30;;;;;;;;;;5015273;28;20042;-70
2023/07/27 09:59:41;;;;;;;1.15;1.10;;;;;;;;;;5013798;28;20034;-70
2023/07/27 10:02:07;;;;;;;1.52;1.42;;;;;;;;;;5015064;28;20030;-70
2023/07/27 10:04:32;;;;;;;2.35;2.15;;;;;;;;;;5014975;28;20036;-70
2023/07/27 10:06:57;;;;;;;89.15;9.23;;;;;;;;;;5015013;28;20038;-70
2023/07/27 10:09:23;;;;;;;5.97;1.50;;;;;;;;;;5013437;28;20032;-70
2023/07/27 10:11:52;;;;;;;4.38;1.42;;;;;;;;;;4997366;28;20037;-70
2023/07/27 10:14:18;;;;;;;2.05;1.10;;;;;;;;;;5014864;28;20108;-70
2023/07/27 10:17:00;;;;;;;1.48;1.38;;;;;;;;;;5014539;28;20464;-70
2023/07/27 10:19:42;;;;;;;1.30;1.10;;;;;;;;;;5029695;28;20057;-70
2023/07/27 10:22:08;;;;;;;2.88;1.40;;;;;;;;;;5014995;28;20069;-70
2023/07/27 10:24:47;;;;;;;3.00;1.38;;;;;;;;;;5014392;28;20029;-70
2023/07/27 10:27:12;;;;;;;1.35;1.25;;;;;;;;;;5014683;28;20416;-70
2023/07/27 10:29:37;;;;;;;1.30;1.30;;;;;;;;;;4996147;28;20038;-70
2023/07/27 10:32:05;;;;;;;2.70;1.60;;;;;;;;;;4995260;28;20050;-70
2023/07/27 10:34:31;;;;;;;2.45;1.50;;;;;;;;;;4994926;28;20030;-70
2023/07/27 10:37:00;;;;;;;1.40;1.30;;;;;;;;;;4977290;28;20034;-70
2023/07/27 10:39:29;;;;;;;2.28;1.55;;;;;;;;;;4994849;28;20038;-70
2023/07/27 10:41:59;;;;;;;2.05;1.55;;;;;;;;;;5009618;28;20035;-70
2023/07/27 10:44:28;;;;;;;1.98;1.88;;;;;;;;;;4994981;28;20038;-70
2023/07/27 10:46:54;;;;;;;2.45;1.40;;;;;;;;;;4994769;28;20117;-70
2023/07/27 10:49:20;;;;;;;2.33;1.70;;;;;;;;;;4994988;28;20042;-70
2023/07/27 10:51:48;;;;;;;1.50;1.40;;;;;;;;;;4994245;28;20018;-70
2023/07/27 10:54:14;;;;;;;1.95;1.63;;;;;;;;;;4994633;28;20026;-70
2023/07/27 10:56:42;;;;;;;4.03;2.53;;;;;;;;;;4993082;28;20034;-70
2023/07/27 10:59:11;;;;;;;1.88;1.77;;;;;;;;;;4994330;28;20026;-70
2023/07/27 11:01:36;;;;;;;1.85;1.75;;;;;;;;;;4994275;28;20030;-70
2023/07/27 11:04:02;;;;;;;2.65;2.00;;;;;;;;;;4994431;28;20038;-70
2023/07/27 11:06:28;;;;;;;2.45;2.25;;;;;;;;;;4994779;28;20022;-70
2023/07/27 11:08:54;;;;;;;1.90;1.65;;;;;;;;;;4993614;28;20398;-70
2023/07/27 11:11:21;;;;;;;1.48;1.38;;;;;;;;;;4993438;28;20101;-70
2023/07/27 11:13:46;;;;;;;1.63;1.52;;;;;;;;;;4992943;28;20038;-70
2023/07/27 11:16:12;;;;;;;1.90;1.80;;;;;;;;;;4960676;28;20034;-70
2023/07/27 11:18:37;;;;;;;2.38;2.05;;;;;;;;;;4994174;28;20042;-70
2023/07/27 11:21:03;;;;;;;6.07;2.10;;;;;;;;;;4992875;28;20037;-70
2023/07/27 11:23:28;;;;;;;1.90;1.80;;;;;;;;;;4994611;28;20042;-70
2023/07/27 11:25:54;;;;;;;2.35;1.88;;;;;;;;;;5008929;28;20109;-70
2023/07/27 11:28:20;;;;;;;2.35;2.10;;;;;;;;;;5001274;28;20096;-70
2023/07/27 11:30:48;;;;;;;2.45;2.22;;;;;;;;;;5012380;28;20022;-70
2023/07/27 11:33:14;;;;;;;2.38;2.28;;;;;;;;;;5013851;28;20029;-70
2023/07/27 11:35:46;;;;;;;2.63;2.42;;;;;;;;;;5013578;28;20103;-70
2023/07/27 11:38:11;;;;;;;2.35;2.10;;;;;;;;;;5013814;28;20092;-70
2023/07/27 11:40:37;;;;;;;3.78;2.20;;;;;;;;;;5013798;28;20073;-70
2023/07/27 11:43:02;;;;;;;2.53;1.92;;;;;;;;;;5012352;28;20033;-70
2023/07/27 11:45:28;;;;;;;3.17;2.03;;;;;;;;;;5028604;28;20099;-70
2023/07/27 11:47:53;;;;;;;2.70;2.35;;;;;;;;;;4996009;28;20036;-70
2023/07/27 11:50:20;;;;;;;2.63;2.47;;;;;;;;;;5013766;28;20054;-70
2023/07/27 11:52:48;;;;;;;3.53;3.20;;;;;;;;;;5012134;28;20048;-70
2023/07/27 11:55:14;;;;;;;3.70;2.75;;;;;;;;;;5013676;28;20531;-70
2023/07/27 11:57:39;;;;;;;3.33;3.00;;;;;;;;;;5012124;28;20045;-70
2023/07/27 12:00:18;;;;;;;3.33;2.28;;;;;;;;;;5013666;28;20041;-70
2023/07/27 12:02:50;;;;;;;3.15;2.75;;;;;;;;;;5012717;28;20041;-70
2023/07/27 12:05:17;;;;;;;3.60;3.30;;;;;;;;;;5013768;28;20488;-70
2023/07/27 12:07:43;;;;;;;3.45;3.15;;;;;;;;;;5013261;28;20400;-70
2023/07/27 12:10:12;;;;;;;2.80;2.60;;;;;;;;;;4996033;28;20037;-70
2023/07/27 12:12:56;;;;;;;3.72;2.25;;;;;;;;;;5013544;28;20173;-70
2023/07/27 12:15:24;;;;;;;3.17;2.08;;;;;;;;;;5013218;28;20033;-70
2023/07/27 12:17:56;;;;;;;2.85;2.22;;;;;;;;;;5013507;28;20492;-70
2023/07/27 12:20:25;;;;;;;2.22;2.00;;;;;;;;;;4997687;28;20121;-70
2023/07/27 12:22:51;;;;;;;2.75;2.42;;;;;;;;;;5016687;28;20044;-70
2023/07/27 12:25:16;;;;;;;3.17;2.30;;;;;;;;;;5016839;28;20034;-70
2023/07/27 12:27:41;;;;;;;2.40;2.20;;;;;;;;;;5016403;28;20389;-70
2023/07/27 12:30:07;;;;;;;2.80;2.60;;;;;;;;;;4999324;28;20041;-70
2023/07/27 12:32:33;;;;;;;2.03;1.92;;;;;;;;;;5016663;28;20441;-70
2023/07/27 12:34:58;;;;;;;1.75;1.65;;;;;;;;;;4998812;28;20088;-70
2023/07/27 12:37:24;;;;;;;2.05;1.83;;;;;;;;;;5016366;28;20124;-70
2023/07/27 12:39:49;;;;;;;2.72;1.60;;;;;;;;;;5016656;28;20062;-70
2023/07/27 12:42:14;;;;;;;1.80;1.70;;;;;;;;;;5016280;28;20053;-70
2023/07/27 12:44:40;;;;;;;2.80;1.70;;;;;;;;;;5016102;28;20026;-70
2023/07/27 12:47:05;;;;;;;2.05;1.65;;;;;;;;;;5016212;28;20484;-70
2023/07/27 12:49:30;;;;;;;1.48;1.42;;;;;;;;;;5016499;28;20443;-70
2023/07/27 12:51:56;;;;;;;1.92;1.73;;;;;;;;;;5016113;28;20436;-70
2023/07/27 12:54:21;;;;;;;1.77;1.67;;;;;;;;;;4998603;28;20030;-70
2023/07/27 12:56:47;;;;;;;2.00;1.75;;;;;;;;;;5016042;28;20034;-71
2023/07/27 12:59:12;;;;;;;1.75;1.63;;;;;;;;;;5016526;28;20105;-71
2023/07/27 13:01:38;;;;;;;1.42;1.33;;;;;;;;;;5015921;28;20038;-71
2023/07/27 13:04:03;;;;;;;1.50;1.40;;;;;;;;;;5014640;28;20089;-71
2023/07/27 13:06:28;;;;;;;1.80;1.52;;;;;;;;;;5031678;28;20026;-71
2023/07/27 13:08:54;;;;;;;1.42;1.35;;;;;;;;;;5015805;28;20496;-71
2023/07/27 13:11:19;;;;;;;1.50;1.40;;;;;;;;;;5015998;28;20037;-71
2023/07/27 13:13:45;;;;;;;1.20;1.10;;;;;;;;;;5014487;28;20104;-71
2023/07/27 13:16:10;;;;;;;2.78;1.80;;;;;;;;;;5014603;28;20108;-71
2023/07/27 13:18:35;;;;;;;1.58;1.48;;;;;;;;;;5014975;28;20034;-70
2023/07/27 13:21:01;;;;;;;1.90;1.50;;;;;;;;;;5015555;28;20041;-69
2023/07/27 13:23:26;;;;;;;2.00;1.35;;;;;;;;;;5030803;28;20045;-69
2023/07/27 13:25:51;;;;;;;1.40;1.30;;;;;;;;;;5015401;28;20037;-69
2023/07/27 13:28:17;;;;;;;1.33;1.23;;;;;;;;;;5015306;28;20113;-69
2023/07/27 13:30:42;;;;;;;1.27;1.17;;;;;;;;;;5014944;28;20429;-69
2023/07/27 13:33:08;;;;;;;1.40;1.30;;;;;;;;;;5015350;28;20022;-69
2023/07/27 13:35:46;;;;;;;1.38;1.27;;;;;;;;;;5015823;28;20040;-69
2023/07/27 13:38:11;;;;;;;1.50;1.40;;;;;;;;;;5015258;28;20376;-69
2023/07/27 13:40:36;;;;;;;4.15;1.50;;;;;;;;;;5015477;28;20041;-69
2023/07/27 13:43:01;;;;;;;1.20;1.20;;;;;;;;;;5015424;28;20021;-69
2023/07/27 13:45:27;;;;;;;1.92;1.23;;;;;;;;;;5015080;28;20503;-69
2023/07/27 13:47:52;;;;;;;1.90;1.20;;;;;;;;;;5015616;28;20076;-69
2023/07/27 13:50:17;;;;;;;1.55;1.45;;;;;;;;;;5015053;28;20030;-69
2023/07/27 13:52:43;;;;;;;1.35;1.25;;;;;;;;;;5014991;28;20477;-69
2023/07/27 13:55:08;;;;;;;1.10;1.10;;;;;;;;;;5014965;28;20160;-69
2023/07/27 13:57:33;;;;;;;2.20;1.30;;;;;;;;;;5014859;28;20392;-69
2023/07/27 14:00:00;;;;;;;1.20;1.20;;;;;;;;;;5014924;28;20034;-69
2023/07/27 14:02:25;;;;;;;1.85;1.60;;;;;;;;;;5014849;28;20042;-69
2023/07/27 14:04:50;;;;;;;2.70;1.73;;;;;;;;;;5014663;28;20510;-69
2023/07/27 14:07:16;;;;;;;2.60;1.75;;;;;;;;;;5029884;28;20033;-69
2023/07/27 14:09:41;;;;;;;3.92;1.30;;;;;;;;;;5014760;28;20054;-69
2023/07/27 14:12:07;;;;;;;2.40;1.80;;;;;;;;;;5014929;28;20014;-69
2023/07/27 14:14:32;;;;;;;1.77;1.67;;;;;;;;;;5012706;28;20030;-69
2023/07/27 14:16:57;;;;;;;1.98;1.25;;;;;;;;;;5014606;28;20537;-69
2023/07/27 14:19:23;;;;;;;2.38;1.42;;;;;;;;;;4996598;28;20508;-70
2023/07/27 14:21:48;;;;;;;1.20;1.10;;;;;;;;;;5019839;28;20028;-69
2023/07/27 14:24:13;;;;;;;2.03;1.52;;;;;;;;;;5032303;28;20033;-70
2023/07/27 14:26:39;;;;;;;3.28;1.40;;;;;;;;;;5034027;28;20084;-70
2023/07/27 14:29:04;;;;;;;2.85;1.60;;;;;;;;;;5003184;28;20042;-70
2023/07/27 14:31:30;;;;;;;1.40;1.30;;;;;;;;;;4996996;28;20066;-71
2023/07/27 14:33:57;;;;;;;1.20;1.20;;;;;;;;;;4997369;28;20080;-71
2023/07/27 14:36:23;;;;;;;1.80;1.20;;;;;;;;;;5014763;28;20026;-76
2023/07/27 14:38:48;;;;;;;1.30;1.20;;;;;;;;;;4996706;28;20021;-76
2023/07/27 14:41:14;;;;;;;0.65;0.65;;;;;;;;;;4996744;28;20037;-76